Time;durP1;ratioP1;P1;durP2;ratioP2;P2;SDS_P1;SDS_P2;PMS_P1;PMS_P2;Temp;Humidity;BMP_temperature;BMP_pressure;BME280_temperature;BME280_humidity;BME280_pressure;Samples;Min_cycle;Max_cycle;Signal;HPM_P1;HPM_P2
2021/04/13 00:00:49;;;;;;;20.20;10.87;;;;;;;;;;6167411;23;20163;-90
2021/04/13 00:04:01;;;;;;;18.77;9.77;;;;;;;;;;6165807;23;20216;-89
2021/04/13 00:07:06;;;;;;;19.57;10.70;;;;;;;;;;6166771;23;20237;-89
2021/04/13 00:10:13;;;;;;;18.43;9.93;;;;;;;;;;6167507;23;20176;-89
2021/04/13 00:13:18;;;;;;;18.27;10.53;;;;;;;;;;6167070;23;20228;-91
2021/04/13 00:16:24;;;;;;;19.17;11.33;;;;;;;;;;6167814;23;20180;-86
2021/04/13 00:19:31;;;;;;;19.63;10.57;;;;;;;;;;6168039;23;20176;-88
2021/04/13 00:22:37;;;;;;;19.23;11.10;;;;;;;;;;6169429;23;20175;-89
2021/04/13 00:25:46;;;;;;;21.00;10.40;;;;;;;;;;6168367;23;20195;-89
2021/04/13 00:28:51;;;;;;;17.17;10.17;;;;;;;;;;6169574;23;20471;-89
2021/04/13 00:31:57;;;;;;;20.43;10.43;;;;;;;;;;6168026;23;20172;-89
2021/04/13 00:35:15;;;;;;;20.30;10.40;;;;;;;;;;6169437;23;20196;-90
2021/04/13 00:38:29;;;;;;;18.43;10.33;;;;;;;;;;6167846;23;20177;-88
2021/04/13 00:41:34;;;;;;;18.10;10.17;;;;;;;;;;6167670;23;20172;-88
2021/04/13 00:44:41;;;;;;;18.20;10.77;;;;;;;;;;6167261;23;20209;-88
2021/04/13 00:47:47;;;;;;;19.97;11.20;;;;;;;;;;6166652;23;20165;-87
2021/04/13 00:50:53;;;;;;;18.67;10.90;;;;;;;;;;6167959;23;20152;-91
2021/04/13 00:54:00;;;;;;;20.67;11.90;;;;;;;;;;6166644;23;20192;-90
2021/04/13 00:57:06;;;;;;;21.97;10.90;;;;;;;;;;6166419;23;20245;-89
2021/04/13 01:00:14;;;;;;;22.00;12.37;;;;;;;;;;6165072;23;20218;-89
2021/04/13 01:03:18;;;;;;;24.77;12.50;;;;;;;;;;6165619;23;20160;-88
2021/04/13 01:06:25;;;;;;;21.70;12.53;;;;;;;;;;6167061;23;20187;-89
2021/04/13 01:09:30;;;;;;;22.90;13.40;;;;;;;;;;6167275;23;20500;-88
2021/04/13 01:12:36;;;;;;;23.80;13.53;;;;;;;;;;6166333;23;20263;-89
2021/04/13 01:15:43;;;;;;;22.57;12.37;;;;;;;;;;6166380;23;20725;-90
2021/04/13 01:18:51;;;;;;;26.00;12.90;;;;;;;;;;6165733;23;20177;-89
2021/04/13 01:22:01;;;;;;;22.47;12.57;;;;;;;;;;6168248;23;20242;-87
2021/04/13 01:25:08;;;;;;;24.10;13.57;;;;;;;;;;6167503;23;20559;-88
2021/04/13 01:28:14;;;;;;;24.57;13.90;;;;;;;;;;6169029;23;20203;-89
2021/04/13 01:34:53;;;;;;;25.03;13.87;;;;;;;;;;6167585;23;20192;-90
2021/04/13 01:38:03;;;;;;;23.90;13.40;;;;;;;;;;6169230;23;20184;-89
2021/04/13 01:41:21;;;;;;;24.03;13.40;;;;;;;;;;6169073;23;20172;-89
2021/04/13 01:44:34;;;;;;;23.73;14.00;;;;;;;;;;6166897;23;20180;-90
2021/04/13 01:47:38;;;;;;;23.10;13.13;;;;;;;;;;6167119;23;20627;-91
2021/04/13 01:50:44;;;;;;;23.60;12.60;;;;;;;;;;6169866;23;20210;-87
2021/04/13 01:53:50;;;;;;;22.93;12.63;;;;;;;;;;6170691;23;20192;-89
2021/04/13 01:57:05;;;;;;;22.00;11.40;;;;;;;;;;6170686;23;20213;-86
2021/04/13 02:00:12;;;;;;;21.40;11.43;;;;;;;;;;6170597;23;20193;-90
2021/04/13 02:03:20;;;;;;;28.37;12.53;;;;;;;;;;6170568;23;20169;-89
2021/04/13 02:06:28;;;;;;;19.90;11.33;;;;;;;;;;6168341;23;20197;-87
2021/04/13 02:09:37;;;;;;;20.03;10.73;;;;;;;;;;6170069;23;20168;-87
2021/04/13 02:12:45;;;;;;;18.80;9.70;;;;;;;;;;6167047;23;20169;-88
2021/04/13 02:15:55;;;;;;;21.30;10.17;;;;;;;;;;6169086;23;20204;-91
2021/04/13 02:19:01;;;;;;;16.30;9.30;;;;;;;;;;6167469;23;20168;-88
2021/04/13 02:22:07;;;;;;;18.30;8.97;;;;;;;;;;6167110;23;20168;-87
2021/04/13 02:25:12;;;;;;;13.80;8.47;;;;;;;;;;6167112;23;20647;-88
2021/04/13 02:28:19;;;;;;;18.17;7.87;;;;;;;;;;6168476;23;20168;-89
2021/04/13 02:31:37;;;;;;;18.53;8.50;;;;;;;;;;6167790;23;20223;-88
2021/04/13 02:34:42;;;;;;;15.10;7.47;;;;;;;;;;6167383;23;20200;-87
2021/04/13 02:37:47;;;;;;;16.83;7.23;;;;;;;;;;6165346;23;20212;-87
2021/04/13 02:40:57;;;;;;;16.47;7.37;;;;;;;;;;6165620;23;20172;-88
2021/04/13 02:44:07;;;;;;;10.37;5.73;;;;;;;;;;6168207;23;20173;-90
2021/04/13 02:47:13;;;;;;;12.20;6.73;;;;;;;;;;6167029;23;20176;-91
2021/04/13 02:50:20;;;;;;;11.67;5.37;;;;;;;;;;6166116;23;20188;-91
2021/04/13 02:53:27;;;;;;;9.20;4.77;;;;;;;;;;6165654;23;20220;-92
2021/04/13 02:56:33;;;;;;;8.43;4.33;;;;;;;;;;6167083;23;20175;-88
2021/04/13 02:59:39;;;;;;;6.40;3.53;;;;;;;;;;6165634;23;20507;-89
2021/04/13 03:02:46;;;;;;;6.73;3.77;;;;;;;;;;6165248;23;20212;-89
2021/04/13 03:05:52;;;;;;;5.00;2.90;;;;;;;;;;6165879;23;20304;-91
2021/04/13 03:08:57;;;;;;;5.90;3.07;;;;;;;;;;6164454;23;20208;-92
2021/04/13 03:12:02;;;;;;;5.30;2.60;;;;;;;;;;6165571;23;20176;-90
2021/04/13 03:15:10;;;;;;;4.40;2.73;;;;;;;;;;6165471;23;20172;-88
2021/04/13 03:18:16;;;;;;;5.67;3.07;;;;;;;;;;6165956;23;20172;-88
2021/04/13 03:21:22;;;;;;;4.43;2.20;;;;;;;;;;6165242;23;20172;-88
2021/04/13 03:24:29;;;;;;;3.43;2.20;;;;;;;;;;6165801;23;20265;-89
2021/04/13 03:27:35;;;;;;;5.97;2.30;;;;;;;;;;6165381;23;20177;-87
2021/04/13 03:30:43;;;;;;;5.00;2.23;;;;;;;;;;6165408;23;20661;-90
2021/04/13 03:33:49;;;;;;;7.40;2.47;;;;;;;;;;6164086;23;20163;-89
2021/04/13 03:36:55;;;;;;;7.90;2.73;;;;;;;;;;6164463;23;20171;-89
2021/04/13 03:40:02;;;;;;;4.27;2.23;;;;;;;;;;6163489;23;20188;-90
2021/04/13 03:43:08;;;;;;;11.30;2.40;;;;;;;;;;6163446;23;20172;-89
2021/04/13 03:46:13;;;;;;;4.20;2.63;;;;;;;;;;6164407;23;20192;-89
2021/04/13 03:49:19;;;;;;;3.67;2.13;;;;;;;;;;6164139;23;20229;-88
2021/04/13 03:52:26;;;;;;;4.90;2.47;;;;;;;;;;6163097;23;20192;-90
2021/04/13 03:55:31;;;;;;;3.20;1.97;;;;;;;;;;6146411;23;20169;-90
2021/04/13 03:58:37;;;;;;;8.03;2.30;;;;;;;;;;6146790;23;20216;-89
2021/04/13 04:05:22;;;;;;;6.33;2.37;;;;;;;;;;6148271;23;20227;-89
2021/04/13 04:08:34;;;;;;;5.47;2.30;;;;;;;;;;6147204;23;20164;-87
2021/04/13 04:11:38;;;;;;;4.37;2.10;;;;;;;;;;6148132;23;20177;-90
2021/04/13 04:14:55;;;;;;;6.37;2.43;;;;;;;;;;6147505;23;20175;-87
2021/04/13 04:17:59;;;;;;;5.30;2.40;;;;;;;;;;6148594;23;20172;-87
2021/04/13 04:21:15;;;;;;;6.20;2.97;;;;;;;;;;6147439;23;20176;-88
2021/04/13 04:24:23;;;;;;;6.13;2.40;;;;;;;;;;6148374;23;20771;-87
2021/04/13 04:27:31;;;;;;;7.87;2.50;;;;;;;;;;6148457;23;20224;-89
2021/04/13 04:30:36;;;;;;;5.23;2.63;;;;;;;;;;6148479;23;20504;-86
2021/04/13 04:33:41;;;;;;;6.97;3.00;;;;;;;;;;6147675;23;20196;-87
2021/04/13 04:36:47;;;;;;;5.50;3.57;;;;;;;;;;6149965;23;20166;-87
2021/04/13 04:40:11;;;;;;;10.93;3.20;;;;;;;;;;6148440;23;20212;-87
2021/04/13 04:43:18;;;;;;;7.33;3.20;;;;;;;;;;6149718;23;20230;-90
2021/04/13 04:46:33;;;;;;;6.67;3.77;;;;;;;;;;6149510;23;20195;-88
2021/04/13 04:49:41;;;;;;;9.33;3.50;;;;;;;;;;6150779;23;20498;-87
2021/04/13 04:52:47;;;;;;;7.40;3.80;;;;;;;;;;6148894;23;20212;-86
2021/04/13 04:55:52;;;;;;;5.70;2.77;;;;;;;;;;6149719;23;20653;-90
2021/04/13 04:58:56;;;;;;;6.83;3.20;;;;;;;;;;6151468;23;20222;-90
2021/04/13 05:02:01;;;;;;;6.30;3.23;;;;;;;;;;6150882;23;20620;-89
2021/04/13 05:05:06;;;;;;;11.07;3.40;;;;;;;;;;6152638;23;20655;-89
2021/04/13 05:08:12;;;;;;;8.27;3.20;;;;;;;;;;6150284;23;20562;-90
2021/04/13 05:11:17;;;;;;;7.47;3.20;;;;;;;;;;6154622;23;20167;-88
2021/04/13 05:14:22;;;;;;;7.17;3.00;;;;;;;;;;6153995;23;20159;-90
2021/04/13 05:17:26;;;;;;;5.77;3.37;;;;;;;;;;6153988;23;20181;-88
2021/04/13 05:20:31;;;;;;;10.87;3.90;;;;;;;;;;6152907;23;20201;-88
2021/04/13 05:23:37;;;;;;;5.43;3.50;;;;;;;;;;6151815;23;20176;-87
2021/04/13 05:26:43;;;;;;;17.13;8.23;;;;;;;;;;6150780;23;20338;-87
2021/04/13 05:29:48;;;;;;;7.37;3.53;;;;;;;;;;6150742;23;20169;-88
2021/04/13 05:32:52;;;;;;;5.40;3.47;;;;;;;;;;6149372;23;20188;-89
2021/04/13 05:35:57;;;;;;;7.13;3.67;;;;;;;;;;6148931;23;20171;-87
2021/04/13 05:39:03;;;;;;;6.00;3.13;;;;;;;;;;6149047;23;20164;-88
2021/04/13 05:42:08;;;;;;;9.37;3.70;;;;;;;;;;6147518;23;20160;-88
2021/04/13 05:45:14;;;;;;;8.27;3.60;;;;;;;;;;6149435;23;20236;-87
2021/04/13 05:48:20;;;;;;;10.15;4.70;;;;;;;;;;6150396;23;20483;-90
2021/04/13 05:51:24;;;;;;;6.87;3.73;;;;;;;;;;6150183;23;20616;-88
2021/04/13 05:54:30;;;;;;;13.10;4.40;;;;;;;;;;6167051;23;20527;-90
2021/04/13 05:57:34;;;;;;;9.57;3.90;;;;;;;;;;6170293;23;20173;-89
2021/04/13 06:00:39;;;;;;;7.80;5.00;;;;;;;;;;6168098;23;20208;-88
2021/04/13 06:03:44;;;;;;;7.33;4.53;;;;;;;;;;6169666;23;20176;-85
2021/04/13 06:06:49;;;;;;;6.73;3.80;;;;;;;;;;6168380;23;20253;-89
2021/04/13 06:09:57;;;;;;;9.17;3.57;;;;;;;;;;6167578;23;20244;-89
2021/04/13 06:13:02;;;;;;;6.47;3.10;;;;;;;;;;6169655;23;20164;-88
2021/04/13 06:16:09;;;;;;;4.43;2.60;;;;;;;;;;6171688;23;20173;-87
2021/04/13 06:19:13;;;;;;;4.97;2.80;;;;;;;;;;6170530;23;20236;-88
2021/04/13 06:22:18;;;;;;;5.67;2.40;;;;;;;;;;6173934;23;20196;-88
2021/04/13 06:25:24;;;;;;;4.07;2.43;;;;;;;;;;6173378;23;20196;-88
2021/04/13 06:28:30;;;;;;;4.13;2.70;;;;;;;;;;6173119;23;20176;-92
2021/04/13 06:31:35;;;;;;;10.07;3.93;;;;;;;;;;6172608;23;20167;-88
2021/04/13 06:34:40;;;;;;;8.47;4.10;;;;;;;;;;6174411;23;20172;-88
2021/04/13 06:37:46;;;;;;;7.30;3.80;;;;;;;;;;6172006;23;20227;-87
2021/04/13 06:41:08;;;;;;;8.67;4.93;;;;;;;;;;6172973;23;20200;-88
2021/04/13 06:44:28;;;;;;;6.90;4.30;;;;;;;;;;6172071;23;20181;-86
2021/04/13 06:47:40;;;;;;;9.20;4.03;;;;;;;;;;6173306;23;20192;-88
2021/04/13 06:50:48;;;;;;;6.03;3.80;;;;;;;;;;6172052;23;20171;-88
2021/04/13 06:54:08;;;;;;;7.23;3.90;;;;;;;;;;6169386;23;20309;-88
2021/04/13 06:57:32;;;;;;;4.37;3.13;;;;;;;;;;6166835;23;20220;-87
2021/04/13 07:00:51;;;;;;;7.10;3.90;;;;;;;;;;6168481;23;20192;-89
2021/04/13 07:03:59;;;;;;;4.17;2.90;;;;;;;;;;6170239;23;20204;-88
2021/04/13 07:07:06;;;;;;;8.50;2.93;;;;;;;;;;6170152;23;20236;-88
2021/04/13 07:10:18;;;;;;;3.33;2.53;;;;;;;;;;6169340;23;20172;-89
2021/04/13 07:13:24;;;;;;;5.27;2.73;;;;;;;;;;6169357;23;20220;-90
2021/04/13 07:16:33;;;;;;;5.93;4.17;;;;;;;;;;6170339;23;20537;-89
2021/04/13 07:19:42;;;;;;;7.10;3.40;;;;;;;;;;6170937;23;20172;-88
2021/04/13 07:22:56;;;;;;;7.23;3.90;;;;;;;;;;6169273;23;20173;-87
2021/04/13 07:26:05;;;;;;;11.67;3.70;;;;;;;;;;6168906;23;20196;-88
2021/04/13 07:29:12;;;;;;;5.10;3.40;;;;;;;;;;6171453;23;20180;-90
2021/04/13 07:32:20;;;;;;;5.67;3.67;;;;;;;;;;6172005;23;20171;-88
2021/04/13 07:35:29;;;;;;;6.73;4.17;;;;;;;;;;6172238;23;20168;-88
2021/04/13 07:38:41;;;;;;;7.97;4.40;;;;;;;;;;6171932;23;20285;-89
2021/04/13 07:41:50;;;;;;;5.67;3.60;;;;;;;;;;6172210;23;20152;-87
2021/04/13 07:45:05;;;;;;;3.57;2.70;;;;;;;;;;6172781;23;20246;-87
2021/04/13 07:48:28;;;;;;;4.63;2.53;;;;;;;;;;6173739;23;20212;-89
2021/04/13 07:51:38;;;;;;;5.07;2.50;;;;;;;;;;6172129;23;20212;-89
2021/04/13 07:54:49;;;;;;;4.47;3.20;;;;;;;;;;6171946;23;20216;-88
2021/04/13 07:58:03;;;;;;;4.63;3.00;;;;;;;;;;6168938;23;20296;-88
2021/04/13 08:01:09;;;;;;;6.07;3.37;;;;;;;;;;6169916;23;20177;-87
2021/04/13 08:04:15;;;;;;;4.33;2.93;;;;;;;;;;6168947;23;20728;-88
2021/04/13 08:07:23;;;;;;;4.03;2.73;;;;;;;;;;6167689;23;20167;-87
2021/04/13 08:10:35;;;;;;;4.53;2.97;;;;;;;;;;6167982;23;20221;-88
2021/04/13 08:13:40;;;;;;;4.80;3.17;;;;;;;;;;6169130;23;20189;-88
2021/04/13 08:16:45;;;;;;;5.07;3.07;;;;;;;;;;6168335;23;20253;-89
2021/04/13 08:19:58;;;;;;;4.03;2.70;;;;;;;;;;6167917;23;20171;-88
2021/04/13 08:23:06;;;;;;;5.23;3.30;;;;;;;;;;6167698;23;20196;-89
2021/04/13 08:26:42;;;;;;;4.70;3.13;;;;;;;;;;6164162;23;20262;-90
2021/04/13 08:29:50;;;;;;;4.70;3.03;;;;;;;;;;6166854;23;20285;-87
2021/04/13 08:33:01;;;;;;;5.03;3.17;;;;;;;;;;6165558;23;20164;-88
2021/04/13 08:36:12;;;;;;;4.37;2.97;;;;;;;;;;6164193;23;20192;-87
2021/04/13 08:39:41;;;;;;;4.93;3.17;;;;;;;;;;6163925;23;20616;-88
2021/04/13 08:42:48;;;;;;;4.47;3.13;;;;;;;;;;6165407;23;20192;-88
2021/04/13 08:46:08;;;;;;;6.53;3.93;;;;;;;;;;6165575;23;20192;-90
2021/04/13 08:49:14;;;;;;;5.77;3.70;;;;;;;;;;6167565;23;20172;-86
2021/04/13 08:52:29;;;;;;;5.77;4.13;;;;;;;;;;6164068;23;20169;-86
2021/04/13 08:55:45;;;;;;;7.00;4.67;;;;;;;;;;6165533;23;20168;-89
2021/04/13 08:58:50;;;;;;;7.70;5.23;;;;;;;;;;6165424;23;20596;-87
2021/04/13 09:02:08;;;;;;;7.33;4.83;;;;;;;;;;6165646;23;20272;-87
2021/04/13 09:05:15;;;;;;;9.83;5.47;;;;;;;;;;6165447;23;20240;-88
2021/04/13 09:08:28;;;;;;;7.33;5.10;;;;;;;;;;6165673;23;20172;-89
2021/04/13 09:11:39;;;;;;;7.43;5.30;;;;;;;;;;6166869;23;20192;-89
2021/04/13 09:14:47;;;;;;;9.47;5.90;;;;;;;;;;6168258;23;20197;-88
2021/04/13 09:17:59;;;;;;;10.23;5.90;;;;;;;;;;6166600;23;20176;-89
2021/04/13 09:21:12;;;;;;;8.33;5.40;;;;;;;;;;6169520;23;20180;-89
2021/04/13 09:24:19;;;;;;;8.37;5.67;;;;;;;;;;6170775;23;20518;-88
2021/04/13 09:27:34;;;;;;;10.47;6.23;;;;;;;;;;6171006;23;20229;-88
2021/04/13 09:30:41;;;;;;;10.23;5.80;;;;;;;;;;6170326;23;20208;-88
2021/04/13 09:33:47;;;;;;;10.17;6.10;;;;;;;;;;6172092;23;20169;-90
2021/04/13 09:36:58;;;;;;;9.73;5.97;;;;;;;;;;6170071;23;20508;-90
2021/04/13 09:40:18;;;;;;;11.10;6.90;;;;;;;;;;6170778;23;20272;-89
2021/04/13 09:43:45;;;;;;;13.83;7.40;;;;;;;;;;6171836;23;20169;-89
2021/04/13 09:47:04;;;;;;;12.83;7.33;;;;;;;;;;6166289;23;20582;-89
2021/04/13 09:50:18;;;;;;;12.77;7.40;;;;;;;;;;6168703;23;20204;-86
2021/04/13 09:53:44;;;;;;;14.70;7.80;;;;;;;;;;6167598;23;20582;-88
2021/04/13 09:56:54;;;;;;;12.77;7.83;;;;;;;;;;6151249;23;20176;-86
2021/04/13 10:00:24;;;;;;;16.70;7.73;;;;;;;;;;6150409;23;20628;-87
2021/04/13 10:03:53;;;;;;;12.00;7.60;;;;;;;;;;6151286;23;20180;-87
2021/04/13 10:07:17;;;;;;;12.17;7.50;;;;;;;;;;6149126;23;20199;-87
2021/04/13 10:10:23;;;;;;;13.27;7.67;;;;;;;;;;6150103;23;20175;-90
2021/04/13 10:13:59;;;;;;;16.67;7.57;;;;;;;;;;6150620;23;20164;-89
2021/04/13 10:17:08;;;;;;;13.43;7.90;;;;;;;;;;6149238;23;20675;-88
2021/04/13 10:20:19;;;;;;;13.20;8.20;;;;;;;;;;6152108;23;20241;-88
2021/04/13 10:23:41;;;;;;;16.13;8.30;;;;;;;;;;6151531;23;20684;-91
2021/04/13 10:27:04;;;;;;;14.80;8.50;;;;;;;;;;6151159;23;20200;-87
2021/04/13 10:30:30;;;;;;;12.57;7.13;;;;;;;;;;6150146;23;20176;-90
2021/04/13 10:33:46;;;;;;;8.63;5.13;;;;;;;;;;6150095;23;20180;-89
2021/04/13 10:37:05;;;;;;;10.97;5.83;;;;;;;;;;6150624;23;20176;-86
2021/04/13 10:40:22;;;;;;;10.00;5.60;;;;;;;;;;6149332;23;20208;-88
2021/04/13 10:43:47;;;;;;;8.77;5.70;;;;;;;;;;6149415;23;20172;-86
2021/04/13 10:46:53;;;;;;;8.00;5.27;;;;;;;;;;6148339;23;20299;-88
2021/04/13 10:50:10;;;;;;;11.67;6.47;;;;;;;;;;6149260;23;20289;-88
2021/04/13 10:53:36;;;;;;;11.57;6.07;;;;;;;;;;6148549;23;20192;-89
2021/04/13 10:56:59;;;;;;;11.30;6.90;;;;;;;;;;6151522;23;20243;-87
2021/04/13 11:00:22;;;;;;;11.60;6.33;;;;;;;;;;6150041;23;20177;-90
2021/04/13 11:03:52;;;;;;;13.73;7.73;;;;;;;;;;6153567;23;20173;-90
2021/04/13 11:07:24;;;;;;;10.00;6.80;;;;;;;;;;6151861;23;20208;-87
2021/04/13 11:10:44;;;;;;;14.73;6.80;;;;;;;;;;6153692;23;20192;-89
2021/04/13 11:14:05;;;;;;;13.63;7.73;;;;;;;;;;6122106;23;20208;-87
2021/04/13 11:21:08;;;;;;;14.43;7.67;;;;;;;;;;6172826;23;20467;-88
2021/04/13 11:24:28;;;;;;;15.53;8.60;;;;;;;;;;6153731;23;20169;-91
2021/04/13 11:27:48;;;;;;;15.70;8.57;;;;;;;;;;6154665;23;20263;-88
2021/04/13 11:31:07;;;;;;;14.80;8.40;;;;;;;;;;6152649;23;20193;-88
2021/04/13 11:34:24;;;;;;;16.63;8.00;;;;;;;;;;6153671;23;20172;-88
2021/04/13 11:37:50;;;;;;;13.87;7.53;;;;;;;;;;6152893;23;20173;-88
2021/04/13 11:41:26;;;;;;;18.30;9.60;;;;;;;;;;6154392;23;20560;-91
2021/04/13 11:44:32;;;;;;;21.20;11.03;;;;;;;;;;6036157;23;20191;-88
2021/04/13 11:47:39;;;;;;;22.37;8.40;;;;;;;;;;6148796;23;20189;-89
2021/04/13 11:50:56;;;;;;;20.13;7.93;;;;;;;;;;6148414;23;20176;-90
2021/04/13 11:54:23;;;;;;;11.20;6.10;;;;;;;;;;6153621;23;20212;-90
2021/04/13 11:57:30;;;;;;;9.67;6.23;;;;;;;;;;6166041;23;20152;-91
2021/04/13 13:05:19;;;;;;;12.47;6.37;;;;;;;;;;6200833;22;20674;-90
2021/04/13 13:08:27;;;;;;;13.23;6.33;;;;;;;;;;6209382;22;20251;-89
2021/04/13 13:11:32;;;;;;;10.93;6.17;;;;;;;;;;6210246;23;20203;-89
2021/04/13 13:14:39;;;;;;;8.90;5.50;;;;;;;;;;6211734;23;20179;-90
2021/04/13 13:17:45;;;;;;;9.13;5.67;;;;;;;;;;6230354;22;20182;-90
2021/04/13 13:21:06;;;;;;;7.63;5.37;;;;;;;;;;6229295;22;20199;-88
2021/04/13 13:24:18;;;;;;;10.67;5.83;;;;;;;;;;6211798;23;20191;-89
2021/04/13 13:27:28;;;;;;;21.10;9.83;;;;;;;;;;6209959;23;20202;-89
2021/04/13 13:30:34;;;;;;;13.87;6.60;;;;;;;;;;6212042;23;20207;-91
2021/04/13 13:33:38;;;;;;;10.07;5.43;;;;;;;;;;6211263;23;20170;-88
2021/04/13 13:36:44;;;;;;;8.73;5.53;;;;;;;;;;6210184;23;20313;-88
2021/04/13 13:39:49;;;;;;;10.17;6.00;;;;;;;;;;6208602;23;20168;-87
2021/04/13 13:42:54;;;;;;;8.20;5.20;;;;;;;;;;6212360;23;20195;-86
2021/04/13 13:46:22;;;;;;;9.80;6.13;;;;;;;;;;6211225;23;20194;-87
2021/04/13 13:49:29;;;;;;;9.73;5.60;;;;;;;;;;6212384;22;20615;-89
2021/04/13 13:52:39;;;;;;;9.43;5.77;;;;;;;;;;6213080;23;20172;-91
2021/04/13 13:55:54;;;;;;;8.23;5.27;;;;;;;;;;6212987;23;20166;-91
2021/04/13 13:59:32;;;;;;;6.47;3.93;;;;;;;;;;6230397;23;20549;-90
2021/04/13 14:02:39;;;;;;;7.10;4.70;;;;;;;;;;6210417;22;20716;-89
2021/04/13 14:05:54;;;;;;;4.40;3.00;;;;;;;;;;6211016;23;20215;-88
2021/04/13 14:09:09;;;;;;;3.87;2.83;;;;;;;;;;6213113;23;20179;-87
2021/04/13 14:12:30;;;;;;;5.23;2.80;;;;;;;;;;6215358;23;20176;-89
2021/04/13 14:15:36;;;;;;;6.50;2.40;;;;;;;;;;6212832;22;20195;-91
2021/04/13 14:18:50;;;;;;;3.50;2.53;;;;;;;;;;6213783;23;20175;-88
2021/04/13 14:21:56;;;;;;;3.43;2.70;;;;;;;;;;6211766;23;20240;-89
2021/04/13 14:25:09;;;;;;;5.67;2.63;;;;;;;;;;6214645;22;20216;-88
2021/04/13 14:28:20;;;;;;;4.40;2.47;;;;;;;;;;6212331;22;20167;-88
2021/04/13 14:31:25;;;;;;;3.97;2.47;;;;;;;;;;6212984;23;20167;-90
2021/04/13 14:34:33;;;;;;;4.93;2.87;;;;;;;;;;6214420;23;20283;-90
2021/04/13 14:37:39;;;;;;;3.73;2.77;;;;;;;;;;6212860;23;20215;-87
2021/04/13 14:40:44;;;;;;;6.77;3.60;;;;;;;;;;6214443;22;20151;-89
2021/04/13 14:43:49;;;;;;;5.40;3.60;;;;;;;;;;6211555;22;20170;-88
2021/04/13 14:46:54;;;;;;;5.10;3.37;;;;;;;;;;6210773;23;20199;-89
2021/04/13 14:50:01;;;;;;;5.63;3.57;;;;;;;;;;6230645;22;20171;-88
2021/04/13 14:53:07;;;;;;;6.07;4.03;;;;;;;;;;6210645;23;20195;-88
2021/04/13 14:56:13;;;;;;;6.80;4.17;;;;;;;;;;6212070;22;20175;-88
2021/04/13 14:59:18;;;;;;;7.03;4.17;;;;;;;;;;6212506;22;20179;-86
2021/04/13 15:02:23;;;;;;;6.03;3.67;;;;;;;;;;6213286;23;20167;-88
2021/04/13 15:05:28;;;;;;;7.57;4.00;;;;;;;;;;6212265;23;20202;-88
2021/04/13 15:08:34;;;;;;;12.57;5.23;;;;;;;;;;6212668;23;20215;-87
2021/04/13 15:11:39;;;;;;;11.23;4.07;;;;;;;;;;6211899;23;20174;-86
2021/04/13 15:14:45;;;;;;;18.93;5.90;;;;;;;;;;6211638;23;20220;-91
2021/04/13 15:17:50;;;;;;;5.93;3.53;;;;;;;;;;6211831;23;20403;-89
2021/04/13 15:20:56;;;;;;;7.53;4.60;;;;;;;;;;6214077;23;20252;-89
2021/04/13 15:24:01;;;;;;;10.53;5.37;;;;;;;;;;6210139;23;20170;-90
2021/04/13 15:27:07;;;;;;;9.90;6.33;;;;;;;;;;6210676;23;20198;-87
2021/04/13 15:30:13;;;;;;;14.90;6.40;;;;;;;;;;6209455;23;20228;-89
2021/04/13 15:33:19;;;;;;;14.40;7.77;;;;;;;;;;6208247;23;20172;-91
2021/04/13 15:36:27;;;;;;;10.87;5.87;;;;;;;;;;6229585;23;20166;-87
2021/04/13 15:39:32;;;;;;;7.07;5.00;;;;;;;;;;6211586;23;20218;-90
2021/04/13 15:42:43;;;;;;;6.20;4.33;;;;;;;;;;6210043;23;20283;-88
2021/04/13 16:47:26;;;;;;;10.97;6.00;;;;;;;;;;6197528;22;20207;-90
2021/04/13 16:50:32;;;;;;;11.57;7.10;;;;;;;;;;6185294;23;20187;-86
2021/04/13 16:53:37;;;;;;;11.87;7.17;;;;;;;;;;6228694;23;20170;-86
2021/04/13 16:56:44;;;;;;;12.97;7.80;;;;;;;;;;6207464;23;20220;-85
2021/04/13 16:59:52;;;;;;;12.27;7.47;;;;;;;;;;6210214;23;20175;-87
2021/04/13 17:03:07;;;;;;;11.33;7.10;;;;;;;;;;6209146;23;20175;-88
2021/04/13 17:06:14;;;;;;;12.83;8.00;;;;;;;;;;6209060;23;20191;-87
2021/04/13 17:09:20;;;;;;;11.30;7.20;;;;;;;;;;6210917;23;20202;-88
2021/04/13 17:12:28;;;;;;;12.53;7.47;;;;;;;;;;6208540;23;20343;-88
2021/04/13 17:15:36;;;;;;;12.73;8.23;;;;;;;;;;6227079;23;20230;-90
2021/04/13 17:18:43;;;;;;;14.93;7.80;;;;;;;;;;6207822;23;20259;-87
2021/04/13 17:21:50;;;;;;;14.33;8.30;;;;;;;;;;6209638;23;20186;-86
2021/04/13 17:25:08;;;;;;;12.83;7.73;;;;;;;;;;6207857;23;20163;-87
2021/04/13 17:28:16;;;;;;;15.00;8.33;;;;;;;;;;6208870;23;20214;-89
2021/04/13 17:31:22;;;;;;;18.83;9.50;;;;;;;;;;6215755;23;20183;-91
2021/04/13 17:34:28;;;;;;;14.87;9.37;;;;;;;;;;6216537;22;20186;-89
2021/04/13 17:37:34;;;;;;;14.67;8.67;;;;;;;;;;6212525;23;20163;-89
2021/04/13 17:40:40;;;;;;;19.23;10.20;;;;;;;;;;6213351;23;20166;-90
2021/04/13 17:43:48;;;;;;;19.07;12.07;;;;;;;;;;6212347;23;20171;-90
2021/04/13 17:46:54;;;;;;;25.47;10.83;;;;;;;;;;6212196;22;20210;-91
2021/04/13 17:50:01;;;;;;;18.87;10.17;;;;;;;;;;6213205;22;20158;-89
2021/04/13 17:53:07;;;;;;;17.50;10.50;;;;;;;;;;6213045;23;20171;-88
2021/04/13 17:56:14;;;;;;;20.27;11.83;;;;;;;;;;6214300;23;20175;-88
2021/04/13 17:59:19;;;;;;;21.27;12.43;;;;;;;;;;6228402;23;20167;-88
2021/04/13 18:02:27;;;;;;;21.20;12.53;;;;;;;;;;6214023;22;20200;-90
2021/04/13 18:05:36;;;;;;;20.23;11.67;;;;;;;;;;6230285;23;20171;-88
2021/04/13 18:08:43;;;;;;;16.10;10.63;;;;;;;;;;6213762;23;20581;-88
2021/04/13 18:11:49;;;;;;;17.67;10.57;;;;;;;;;;6215575;23;20279;-90
2021/04/13 18:14:57;;;;;;;19.90;10.80;;;;;;;;;;6212340;23;20611;-88
2021/04/13 18:18:05;;;;;;;20.53;11.63;;;;;;;;;;6212947;22;20167;-90
2021/04/13 18:21:13;;;;;;;19.70;11.60;;;;;;;;;;6211641;23;20623;-89
2021/04/13 18:24:20;;;;;;;22.13;12.93;;;;;;;;;;6210988;23;20420;-89
2021/04/13 18:27:27;;;;;;;23.60;12.80;;;;;;;;;;6213607;22;20267;-88
2021/04/13 18:30:32;;;;;;;29.77;13.53;;;;;;;;;;6214156;23;20170;-89
2021/04/13 18:33:41;;;;;;;24.90;12.33;;;;;;;;;;6215798;23;20170;-89
2021/04/13 18:36:49;;;;;;;20.53;11.20;;;;;;;;;;6217368;22;20200;-90
2021/04/13 18:39:58;;;;;;;21.33;11.50;;;;;;;;;;6215419;23;20167;-91
2021/04/13 18:43:06;;;;;;;27.63;11.50;;;;;;;;;;6216500;23;20261;-88
2021/04/13 18:46:14;;;;;;;17.73;9.80;;;;;;;;;;6214913;23;20194;-91
2021/04/13 18:49:21;;;;;;;21.53;11.80;;;;;;;;;;6212367;23;20170;-90
2021/04/13 18:52:28;;;;;;;18.93;11.00;;;;;;;;;;6213380;23;20167;-89
2021/04/13 18:55:39;;;;;;;20.30;11.30;;;;;;;;;;6212709;23;20555;-91
2021/04/13 18:58:45;;;;;;;25.63;13.00;;;;;;;;;;6212598;23;20619;-89
2021/04/13 19:01:51;;;;;;;20.83;12.17;;;;;;;;;;6212427;23;20171;-89
2021/04/13 19:04:56;;;;;;;23.00;12.93;;;;;;;;;;6213280;23;20182;-88
2021/04/13 19:08:07;;;;;;;21.70;12.77;;;;;;;;;;6212191;23;20195;-91
2021/04/13 19:11:15;;;;;;;23.20;12.87;;;;;;;;;;6211702;23;20171;-90
2021/04/13 19:14:23;;;;;;;24.70;12.90;;;;;;;;;;6212544;23;20170;-90
2021/04/13 19:17:29;;;;;;;22.63;12.83;;;;;;;;;;6210617;23;20170;-88
2021/04/13 19:20:36;;;;;;;25.60;14.07;;;;;;;;;;6211156;23;20175;-90
2021/04/13 19:23:45;;;;;;;25.27;14.43;;;;;;;;;;6211374;23;20214;-90
2021/04/13 19:26:52;;;;;;;33.10;17.87;;;;;;;;;;6210408;23;20314;-89
2021/04/13 19:30:02;;;;;;;38.37;18.10;;;;;;;;;;6211996;23;20191;-90
2021/04/13 19:33:11;;;;;;;27.57;14.70;;;;;;;;;;6210938;23;20611;-89
2021/04/13 19:36:17;;;;;;;23.83;12.50;;;;;;;;;;6211149;23;20174;-91
2021/04/13 19:39:24;;;;;;;19.57;11.83;;;;;;;;;;6211771;23;20239;-89
2021/04/13 19:42:31;;;;;;;21.53;11.97;;;;;;;;;;6211252;23;20229;-89
2021/04/13 19:45:42;;;;;;;21.90;12.00;;;;;;;;;;6211188;23;20729;-89
2021/04/13 19:48:50;;;;;;;19.60;11.17;;;;;;;;;;6210787;23;20563;-89
2021/04/13 19:51:58;;;;;;;21.43;12.10;;;;;;;;;;6211504;23;20207;-91
2021/04/13 19:55:09;;;;;;;21.93;11.90;;;;;;;;;;6211849;23;20606;-90
2021/04/13 19:58:16;;;;;;;23.23;12.57;;;;;;;;;;6210756;23;20167;-88
2021/04/13 20:01:24;;;;;;;23.53;12.67;;;;;;;;;;6218277;23;20187;-89
2021/04/13 20:04:31;;;;;;;18.87;11.30;;;;;;;;;;6231886;23;20250;-87
2021/04/13 20:07:38;;;;;;;24.67;13.00;;;;;;;;;;6216314;23;20214;-89
2021/04/13 20:10:44;;;;;;;19.70;11.93;;;;;;;;;;6215335;23;20175;-91
2021/04/13 20:13:49;;;;;;;20.47;11.67;;;;;;;;;;6212690;23;20294;-89
2021/04/13 20:16:58;;;;;;;19.20;10.73;;;;;;;;;;6214007;23;20167;-88
2021/04/13 20:20:07;;;;;;;22.37;11.47;;;;;;;;;;6215999;23;20170;-89
2021/04/13 20:23:15;;;;;;;21.30;11.97;;;;;;;;;;6219446;23;20215;-89
2021/04/13 20:26:27;;;;;;;22.93;12.90;;;;;;;;;;6215774;23;20202;-90
2021/04/13 20:29:35;;;;;;;26.43;13.83;;;;;;;;;;6217809;23;20175;-88
2021/04/13 20:32:44;;;;;;;24.07;13.77;;;;;;;;;;6216860;23;20191;-89
2021/04/13 20:39:21;;;;;;;23.67;12.67;;;;;;;;;;6214896;23;20166;-90
2021/04/13 20:42:28;;;;;;;19.70;12.10;;;;;;;;;;6214193;23;20175;-89
2021/04/13 20:45:33;;;;;;;18.20;11.40;;;;;;;;;;6215167;23;20235;-88
2021/04/13 20:48:43;;;;;;;21.50;13.10;;;;;;;;;;6212040;23;20214;-89
2021/04/13 20:51:49;;;;;;;24.57;13.00;;;;;;;;;;6212424;23;20211;-88
2021/04/13 20:54:58;;;;;;;22.47;12.97;;;;;;;;;;6211987;23;20246;-90
2021/04/13 20:58:06;;;;;;;22.50;12.73;;;;;;;;;;6210756;23;20179;-88
2021/04/13 21:01:15;;;;;;;24.07;12.37;;;;;;;;;;6210783;23;20175;-87